Terminal Aerodrome Forecast
Issued by NWS

Home | Current Version | Previous Version | Text Only | Print | Product List | Glossary On
Versions: 1 2 3 4 5 6 7 8 9 10 11 12 13 14 15 16 17
458
FTUS46 KLOX 251137
TAFVNY
TAF
KVNY 251137Z 2512/2612 VRB03KT P6SM SCT120
     FM251300 VRB03KT P6SM VCSH BKN025 OVC040
     FM251700 VRB03KT P6SM BKN050
     FM252100 16007KT P6SM SCT050
     FM260300 VRB03KT P6SM BKN060=

USA.gov is the U.S. government's official web portal to all federal, state and local government web resources and services.